Pays
Station

 

Conditions  météo  pour  Kalamata Airport  -  Grèce    Grèce

  
22 °C
    
 
 

METAR pour Kalamata Airport :

LGKL 161950Z 34004KT 9999 FEW025 22/17 Q1011

 

Voici le bulletin pour Kalamata Airport - Grèce.
 
Le bulletin a été fait il y a 15 minutes, à 19:50 UTC .
Le vent soufflait à la vitesse de 2.1 mètres par seconde de Nord/Nord-ouest (340°).
 
La température était de 22 °C, avec un point de rosée à 17 °C.
La température ressentie était de 23 °C.
 
La pression atmosphérique était de 1011 hPa.
L'humidité relative était de 73.3%.
 
Il y avait 1 à 2/8ème de nébulosité à une hauteur de 762 mètres.
 
La visibilité globale était de supérieure à 10 kilomètres.
 

 
 
 

Pays :   A   B   C   D   E   F   G   H   I   J   K   L   M   N   O   P   Q   R   S   T   U   V   W   Y   Z

 

Partenaires :  Info Météo avec Met'info
Météo Marine avec MeteoMarine.net
Infos Site  |  Infos Légales  |  Crédits  |  Confidentialité
Contactez-nous  |  Ajouter aux favoris
© 2013-2018 METAR - Tous droits réservés